createdAt,value
2022-12-13T00:00:30.628Z,10.40
2022-12-13T00:03:14.210Z,10.60
2022-12-13T00:05:44.000Z,10.10
2022-12-13T00:08:07.854Z,9.30
2022-12-13T00:10:31.528Z,10.40
2022-12-13T00:12:54.939Z,9.70
2022-12-13T00:15:18.615Z,10.50
2022-12-13T00:17:42.449Z,11.10
2022-12-13T00:20:07.380Z,10.40
2022-12-13T00:22:31.058Z,10.10
2022-12-13T00:24:55.890Z,9.50
2022-12-13T00:27:19.314Z,9.20
2022-12-13T00:29:43.684Z,8.90
2022-12-13T00:32:07.346Z,9.20
2022-12-13T00:34:31.080Z,8.40
2022-12-13T00:36:55.193Z,10.00
2022-12-13T00:39:19.068Z,8.70
2022-12-13T00:41:44.152Z,8.40
2022-12-13T00:44:08.149Z,9.50
2022-12-13T00:46:32.048Z,9.80
2022-12-13T00:48:57.831Z,9.90
2022-12-13T00:51:22.346Z,10.20
2022-12-13T00:53:46.093Z,9.00
2022-12-13T00:56:13.161Z,8.40
2022-12-13T00:58:36.609Z,8.70
2022-12-13T01:01:09.012Z,8.60
2022-12-13T01:03:32.733Z,8.70
2022-12-13T01:08:40.077Z,8.60
2022-12-13T01:11:04.482Z,9.30
2022-12-13T01:13:27.899Z,8.70
2022-12-13T01:15:51.624Z,9.20
2022-12-13T01:18:17.976Z,9.70
2022-12-13T01:20:41.390Z,9.70
2022-12-13T01:23:05.564Z,9.00
2022-12-13T01:25:29.443Z,8.60
2022-12-13T01:27:52.848Z,8.60
2022-12-13T01:30:16.396Z,7.70
2022-12-13T01:32:39.846Z,8.80
2022-12-13T01:35:03.377Z,9.00
2022-12-13T01:37:27.555Z,8.90
2022-12-13T01:39:51.085Z,9.70
2022-12-13T01:42:15.377Z,9.60
2022-12-13T01:45:20.661Z,9.60
2022-12-13T01:47:48.217Z,9.80
2022-12-13T01:50:16.829Z,9.50
2022-12-13T01:52:42.515Z,10.10
2022-12-13T01:55:09.043Z,9.60
2022-12-13T01:57:34.198Z,8.30
2022-12-13T01:59:58.041Z,9.30
2022-12-13T02:02:22.720Z,9.50
2022-12-13T02:04:54.505Z,10.00
2022-12-13T02:07:23.091Z,9.60
2022-12-13T02:09:48.421Z,10.20
2022-12-13T02:12:20.845Z,9.80
2022-12-13T02:14:44.850Z,10.40
2022-12-13T02:17:19.178Z,10.00
2022-12-13T02:20:21.424Z,9.30
2022-12-13T02:23:06.883Z,9.30
2022-12-13T02:26:03.522Z,9.50
2022-12-13T02:28:42.979Z,8.70
2022-12-13T02:31:11.906Z,8.50
2022-12-13T02:33:50.166Z,8.80
2022-12-13T02:36:19.300Z,9.30
2022-12-13T02:38:52.020Z,8.80
2022-12-13T02:41:22.456Z,8.70
2022-12-13T02:43:52.927Z,8.70
2022-12-13T02:46:29.732Z,8.30
2022-12-13T02:48:56.807Z,8.80
2022-12-13T02:51:22.259Z,9.10
2022-12-13T02:53:46.071Z,6.40
2022-12-13T02:56:09.651Z,9.90
2022-12-13T02:58:35.705Z,9.40
2022-12-13T03:04:01.532Z,10.70
2022-12-13T03:06:35.085Z,10.00
2022-12-13T03:09:10.500Z,9.90
2022-12-13T03:12:01.122Z,10.60
2022-12-13T03:14:30.532Z,10.70
2022-12-13T03:16:55.716Z,9.90
2022-12-13T03:19:19.545Z,10.50
2022-12-13T03:21:48.069Z,9.50
2022-12-13T03:24:13.199Z,9.00
2022-12-13T03:26:38.497Z,9.40
2022-12-13T03:29:01.959Z,8.90
2022-12-13T03:31:25.609Z,8.60
2022-12-13T03:33:49.031Z,9.90
2022-12-13T03:36:13.561Z,9.60
2022-12-13T03:38:39.389Z,10.00
2022-12-13T03:41:05.607Z,10.90
2022-12-13T03:43:29.764Z,11.40
2022-12-13T03:45:54.354Z,12.40
2022-12-13T03:48:22.620Z,12.90
2022-12-13T03:50:47.552Z,12.60
2022-12-13T03:53:22.277Z,12.90
2022-12-13T03:55:54.644Z,12.00
2022-12-13T03:58:18.407Z,12.60
2022-12-13T04:00:41.961Z,13.40
2022-12-13T04:03:05.604Z,13.00
2022-12-13T04:05:29.953Z,12.70
2022-12-13T04:07:53.582Z,12.70
2022-12-13T04:10:25.462Z,12.10
2022-12-13T04:13:08.140Z,13.70
2022-12-13T04:15:31.878Z,12.30
2022-12-13T04:17:55.525Z,13.50
2022-12-13T04:20:18.959Z,13.30
2022-12-13T04:22:42.808Z,14.10
2022-12-13T04:25:07.352Z,13.60
2022-12-13T04:27:30.787Z,13.40
2022-12-13T04:29:54.166Z,14.70
2022-12-13T04:32:26.108Z,14.10
2022-12-13T04:34:50.854Z,14.10
2022-12-13T04:37:14.373Z,14.40
2022-12-13T04:39:37.861Z,15.80
2022-12-13T04:42:01.659Z,14.80
2022-12-13T04:44:31.449Z,14.60
2022-12-13T04:47:01.157Z,13.90
2022-12-13T04:49:25.075Z,15.20
2022-12-13T04:51:48.569Z,14.50
2022-12-13T04:54:23.606Z,15.30
2022-12-13T04:56:48.305Z,14.80
2022-12-13T04:59:11.868Z,14.50
2022-12-13T05:01:35.984Z,16.60
2022-12-13T05:04:01.577Z,15.50
2022-12-13T05:06:26.610Z,15.20
2022-12-13T05:11:14.635Z,15.30
2022-12-13T05:13:38.772Z,14.30
2022-12-13T05:16:06.329Z,13.30
2022-12-13T05:18:30.731Z,12.90
2022-12-13T05:20:54.971Z,14.70
2022-12-13T05:23:22.616Z,12.80
2022-12-13T05:25:47.040Z,13.10
2022-12-13T05:28:27.625Z,13.50
2022-12-13T05:30:53.031Z,13.60
2022-12-13T05:33:17.896Z,13.90
2022-12-13T05:35:42.833Z,13.70
2022-12-13T05:38:06.508Z,13.80
2022-12-13T05:40:31.578Z,13.40
2022-12-13T05:43:00.934Z,13.70
2022-12-13T05:45:26.045Z,12.10
2022-12-13T05:47:49.558Z,13.10
2022-12-13T05:50:14.576Z,12.40
2022-12-13T05:52:38.155Z,12.50
2022-12-13T05:55:02.067Z,12.90
2022-12-13T05:57:25.593Z,13.20
2022-12-13T05:59:49.252Z,12.40
2022-12-13T06:02:16.896Z,12.80
2022-12-13T06:04:45.023Z,11.10
2022-12-13T06:07:08.548Z,11.00
2022-12-13T06:09:32.651Z,10.90
2022-12-13T06:12:03.547Z,11.40
2022-12-13T06:14:36.499Z,9.90
2022-12-13T06:17:00.193Z,10.40
2022-12-13T06:19:24.786Z,10.40
2022-12-13T06:21:48.278Z,11.20
2022-12-13T06:24:11.757Z,10.50
2022-12-13T06:26:35.211Z,10.40
2022-12-13T06:28:58.644Z,10.80
2022-12-13T06:31:22.174Z,10.00
2022-12-13T06:33:45.737Z,9.90
2022-12-13T06:36:10.796Z,10.50
2022-12-13T06:38:34.253Z,10.70
2022-12-13T06:41:09.094Z,10.90
2022-12-13T06:43:32.812Z,10.10
2022-12-13T06:45:56.327Z,9.70
2022-12-13T06:48:20.391Z,11.40
2022-12-13T06:50:44.217Z,9.90
2022-12-13T06:53:07.725Z,10.20
2022-12-13T06:55:31.183Z,9.80
2022-12-13T06:57:56.493Z,9.90
2022-12-13T07:00:22.337Z,9.90
2022-12-13T07:02:53.294Z,10.00
2022-12-13T07:05:17.643Z,9.30
2022-12-13T07:07:41.059Z,9.00
2022-12-13T07:10:05.855Z,9.00
2022-12-13T07:12:36.462Z,9.40
2022-12-13T07:14:59.877Z,9.20
2022-12-13T07:17:32.641Z,10.00
2022-12-13T07:19:58.167Z,9.00
2022-12-13T07:22:24.737Z,9.30
2022-12-13T07:24:48.391Z,9.80
2022-12-13T07:27:12.138Z,8.90
2022-12-13T07:29:35.569Z,9.20
2022-12-13T07:32:01.405Z,8.50
2022-12-13T07:34:25.612Z,9.10
2022-12-13T07:36:50.779Z,9.50
2022-12-13T07:39:14.214Z,9.30
2022-12-13T07:41:37.817Z,8.80
2022-12-13T07:44:03.187Z,9.60
2022-12-13T07:46:32.332Z,9.30
2022-12-13T07:49:01.736Z,10.10
2022-12-13T07:51:26.738Z,8.70
2022-12-13T07:53:50.219Z,8.90
2022-12-13T07:56:14.193Z,9.20
2022-12-13T07:58:37.971Z,9.00
2022-12-13T08:01:05.273Z,9.00
2022-12-13T08:03:29.672Z,9.50
2022-12-13T08:06:00.989Z,9.40
2022-12-13T08:08:30.847Z,9.50
2022-12-13T08:10:55.405Z,10.00
2022-12-13T08:13:25.034Z,10.20
2022-12-13T08:15:48.467Z,10.80
2022-12-13T08:18:13.059Z,11.70
2022-12-13T08:20:37.062Z,11.70
2022-12-13T08:23:02.171Z,10.30
2022-12-13T08:25:26.738Z,9.90
2022-12-13T08:27:50.533Z,10.20
2022-12-13T08:30:20.484Z,9.90
2022-12-13T08:32:48.852Z,10.30
2022-12-13T08:37:35.934Z,11.00
2022-12-13T08:39:59.656Z,11.90
2022-12-13T08:42:24.636Z,14.30
2022-12-13T08:44:50.279Z,14.80
2022-12-13T08:47:23.291Z,14.30
2022-12-13T08:49:48.507Z,10.60
2022-12-13T08:52:11.953Z,10.10
2022-12-13T08:54:35.427Z,10.80
2022-12-13T08:56:59.437Z,10.70
2022-12-13T08:59:24.753Z,10.60
2022-12-13T09:01:48.320Z,10.00
2022-12-13T09:04:17.750Z,10.20
2022-12-13T09:06:55.461Z,9.90
2022-12-13T09:09:19.590Z,10.60
2022-12-13T09:11:43.039Z,10.80
2022-12-13T09:14:06.922Z,10.00
2022-12-13T09:16:37.700Z,11.10
2022-12-13T09:19:06.544Z,9.20
2022-12-13T09:21:45.541Z,10.10
2022-12-13T09:24:23.634Z,7.60
2022-12-13T09:26:48.272Z,10.40
2022-12-13T09:29:20.928Z,9.70
2022-12-13T09:31:49.544Z,10.40
2022-12-13T09:34:16.503Z,10.40
2022-12-13T09:36:40.251Z,9.80
2022-12-13T09:39:04.649Z,9.90
2022-12-13T09:41:32.479Z,9.90
2022-12-13T09:44:01.287Z,9.60
2022-12-13T09:46:34.971Z,10.20
2022-12-13T09:49:23.157Z,10.90
2022-12-13T09:52:04.296Z,10.30
2022-12-13T09:54:34.186Z,10.80
2022-12-13T09:56:58.259Z,11.10
2022-12-13T09:59:27.055Z,11.30
2022-12-13T10:01:50.807Z,11.00
2022-12-13T10:04:18.520Z,10.80
2022-12-13T10:06:42.033Z,10.40
2022-12-13T10:09:10.963Z,11.00
2022-12-13T10:11:34.674Z,10.00
2022-12-13T10:14:02.401Z,9.90
2022-12-13T10:16:36.137Z,9.40
2022-12-13T10:19:02.349Z,10.20
2022-12-13T10:21:32.043Z,9.60
2022-12-13T10:26:40.754Z,9.90
2022-12-13T10:29:06.941Z,10.80
2022-12-13T10:31:38.542Z,10.70
2022-12-13T10:34:02.231Z,11.00
2022-12-13T10:36:34.445Z,11.90
2022-12-13T10:38:58.505Z,12.10
2022-12-13T10:41:31.671Z,11.50
2022-12-13T10:44:20.284Z,11.80
2022-12-13T10:46:50.403Z,11.10
2022-12-13T10:49:19.462Z,10.30
2022-12-13T10:51:43.234Z,10.40
2022-12-13T10:54:16.127Z,10.80
2022-12-13T10:56:46.228Z,11.10
2022-12-13T10:59:17.312Z,10.70
2022-12-13T11:01:41.396Z,10.20
2022-12-13T11:04:27.152Z,11.80
2022-12-13T11:06:52.064Z,10.60
2022-12-13T11:09:23.150Z,10.90
2022-12-13T11:11:51.809Z,11.70
2022-12-13T11:14:31.585Z,11.10
2022-12-13T11:16:59.210Z,11.10
2022-12-13T11:19:29.655Z,11.70
2022-12-13T11:21:54.084Z,10.70
2022-12-13T11:24:23.809Z,12.00
2022-12-13T11:26:54.128Z,12.20
2022-12-13T11:29:48.322Z,12.20
2022-12-13T11:32:23.170Z,12.00
2022-12-13T11:34:56.689Z,12.40
2022-12-13T11:37:28.505Z,11.40
2022-12-13T11:40:01.816Z,11.00
2022-12-13T11:42:29.438Z,11.50
2022-12-13T11:45:00.403Z,11.80
2022-12-13T11:47:31.589Z,12.10
2022-12-13T11:49:58.889Z,11.60
2022-12-13T11:52:27.710Z,12.30
2022-12-13T11:54:58.493Z,11.00
2022-12-13T11:57:37.602Z,11.70
2022-12-13T12:00:15.988Z,12.20
2022-12-13T12:03:06.415Z,9.60
2022-12-13T12:05:34.590Z,12.10
2022-12-13T12:08:32.359Z,12.60
2022-12-13T12:10:51.075Z,12.30
2022-12-13T12:13:19.456Z,11.90
2022-12-13T12:15:50.082Z,12.50
2022-12-13T12:18:19.007Z,11.50
2022-12-13T12:20:56.356Z,11.70
2022-12-13T12:23:30.481Z,11.70
2022-12-13T12:26:05.985Z,12.00
2022-12-13T12:28:44.118Z,11.70
2022-12-13T12:31:15.614Z,13.60
2022-12-13T12:33:51.929Z,12.80
2022-12-13T12:36:32.021Z,13.90
2022-12-13T12:39:26.467Z,12.50
2022-12-13T12:42:03.241Z,13.80
2022-12-13T12:50:22.918Z,12.80
2022-12-13T12:52:58.871Z,12.90
2022-12-13T12:55:41.732Z,13.30
2022-12-13T12:58:15.310Z,13.40
2022-12-13T13:00:48.150Z,13.70
2022-12-13T13:03:23.035Z,13.90
2022-12-13T13:05:55.831Z,14.60
2022-12-13T13:08:29.667Z,14.00
2022-12-13T13:10:55.259Z,12.80
2022-12-13T13:13:46.240Z,13.10
2022-12-13T13:16:30.624Z,12.80
2022-12-13T13:18:55.231Z,13.10
2022-12-13T13:21:46.667Z,12.40
2022-12-13T13:24:17.897Z,11.80
2022-12-13T13:26:43.144Z,12.60
2022-12-13T13:29:34.909Z,12.10
2022-12-13T13:32:02.159Z,11.70
2022-12-13T13:34:30.828Z,12.30
2022-12-13T13:36:56.468Z,12.30
2022-12-13T13:39:38.669Z,12.60
2022-12-13T13:42:17.927Z,12.70
2022-12-13T13:45:00.264Z,11.70
2022-12-13T13:47:48.152Z,12.00
2022-12-13T13:50:46.614Z,12.30
2022-12-13T13:53:55.261Z,12.40
2022-12-13T13:56:43.703Z,12.70
2022-12-13T13:59:42.261Z,12.70
2022-12-13T14:02:35.138Z,13.10
2022-12-13T14:05:31.285Z,13.40
2022-12-13T14:08:20.084Z,14.20
2022-12-13T14:11:17.274Z,14.50
2022-12-13T14:14:21.812Z,14.40
2022-12-13T14:17:38.780Z,14.30
2022-12-13T14:20:39.478Z,13.10
2022-12-13T14:23:10.650Z,13.40
2022-12-13T14:25:58.399Z,13.70
2022-12-13T14:28:43.699Z,13.90
2022-12-13T14:31:21.455Z,14.40
2022-12-13T14:33:47.459Z,14.50
2022-12-13T14:36:16.454Z,14.80
2022-12-13T14:38:39.933Z,14.90
2022-12-13T14:41:05.439Z,14.50
2022-12-13T14:43:30.459Z,14.30
2022-12-13T14:45:57.304Z,15.10
2022-12-13T14:48:28.080Z,15.60
2022-12-13T14:50:53.881Z,15.30
2022-12-13T14:53:25.593Z,16.00
2022-12-13T14:56:05.768Z,14.70
2022-12-13T14:58:29.507Z,16.50
2022-12-13T15:00:56.101Z,16.10
2022-12-13T15:03:24.715Z,16.50
2022-12-13T15:05:54.353Z,16.60
2022-12-13T15:08:19.324Z,17.30
2022-12-13T15:10:48.311Z,17.60
2022-12-13T15:13:25.486Z,18.10
2022-12-13T15:15:56.331Z,18.10
2022-12-13T15:18:23.223Z,18.70
2022-12-13T15:20:50.128Z,17.10
2022-12-13T15:23:48.858Z,17.70
2022-12-13T15:26:28.350Z,18.40
2022-12-13T15:28:56.036Z,17.70
2022-12-13T15:33:48.577Z,19.30
2022-12-13T15:36:16.945Z,18.40
2022-12-13T15:38:46.343Z,20.10
2022-12-13T15:41:17.670Z,20.70
2022-12-13T15:43:47.240Z,20.10
2022-12-13T15:46:11.127Z,20.50
2022-12-13T15:48:37.819Z,20.70
2022-12-13T15:51:10.708Z,18.90
2022-12-13T15:53:35.083Z,20.00
2022-12-13T15:55:59.656Z,18.40
2022-12-13T15:58:26.962Z,19.20
2022-12-13T16:00:50.794Z,17.70
2022-12-13T16:03:19.056Z,19.60
2022-12-13T16:05:50.312Z,18.90
2022-12-13T16:08:25.669Z,18.60
2022-12-13T16:10:52.320Z,17.10
2022-12-13T16:13:26.073Z,18.20
2022-12-13T16:15:51.617Z,17.90
2022-12-13T16:18:26.910Z,17.90
2022-12-13T16:20:50.503Z,18.20
2022-12-13T16:23:21.239Z,18.30
2022-12-13T16:25:51.758Z,18.20
2022-12-13T16:28:16.719Z,17.00
2022-12-13T16:31:15.612Z,18.90
2022-12-13T16:33:39.226Z,17.10
2022-12-13T16:36:03.040Z,17.30
2022-12-13T16:38:27.546Z,18.00
2022-12-13T16:40:55.705Z,18.60
2022-12-13T16:43:25.385Z,19.90
2022-12-13T16:45:53.896Z,19.10
2022-12-13T16:50:44.640Z,18.90
2022-12-13T16:53:11.643Z,19.30
2022-12-13T16:55:38.406Z,20.10
2022-12-13T16:58:03.733Z,19.10
2022-12-13T17:00:29.081Z,19.70
2022-12-13T17:02:52.618Z,18.80
2022-12-13T17:05:16.944Z,19.20
2022-12-13T17:07:40.382Z,20.90
2022-12-13T17:10:05.504Z,20.20
2022-12-13T17:12:29.098Z,20.70
2022-12-13T17:14:53.736Z,20.10
2022-12-13T17:17:17.877Z,21.10
2022-12-13T17:19:41.652Z,20.30
2022-12-13T17:22:05.394Z,20.60
2022-12-13T17:24:30.829Z,20.60
2022-12-13T17:26:56.157Z,21.00
2022-12-13T17:29:19.922Z,17.60
2022-12-13T17:31:44.185Z,22.20
2022-12-13T17:34:07.690Z,21.70
2022-12-13T17:36:31.807Z,22.40
2022-12-13T17:38:55.361Z,22.20
2022-12-13T17:41:19.091Z,22.90
2022-12-13T17:43:43.736Z,23.80
2022-12-13T17:46:11.253Z,25.00
2022-12-13T17:48:40.231Z,23.80
2022-12-13T17:51:05.854Z,22.10
2022-12-13T17:53:29.712Z,22.80
2022-12-13T17:55:58.067Z,22.60
2022-12-13T17:58:21.764Z,22.80
2022-12-13T18:00:45.214Z,22.80
2022-12-13T18:03:08.689Z,23.00
2022-12-13T18:05:33.263Z,23.60
2022-12-13T18:07:56.763Z,23.00
2022-12-13T18:10:23.598Z,22.80
2022-12-13T18:12:49.879Z,22.70
2022-12-13T18:15:13.476Z,23.60
2022-12-13T18:18:09.608Z,24.10
2022-12-13T18:20:20.721Z,23.10
2022-12-13T18:22:48.336Z,23.00
2022-12-13T18:25:14.940Z,23.40
2022-12-13T18:27:38.426Z,22.90
2022-12-13T18:30:02.243Z,23.80
2022-12-13T18:32:25.721Z,24.10
2022-12-13T18:34:49.186Z,23.70
2022-12-13T18:37:18.343Z,24.90
2022-12-13T18:39:41.916Z,24.40
2022-12-13T18:42:18.334Z,24.50
2022-12-13T18:44:41.802Z,24.00
2022-12-13T18:47:20.998Z,26.60
2022-12-13T18:49:55.470Z,25.40
2022-12-13T18:52:20.227Z,26.60
2022-12-13T18:54:45.387Z,25.90
2022-12-13T18:57:19.605Z,26.00
2022-12-13T18:59:43.062Z,25.40
2022-12-13T19:02:18.286Z,24.90
2022-12-13T19:04:42.574Z,24.50
2022-12-13T19:07:19.673Z,26.00
2022-12-13T19:09:43.548Z,26.30
2022-12-13T19:12:18.064Z,25.90
2022-12-13T19:14:41.534Z,27.60
2022-12-13T19:17:05.560Z,30.60
2022-12-13T19:19:29.271Z,28.30
2022-12-13T19:21:52.811Z,26.50
2022-12-13T19:24:17.640Z,28.40
2022-12-13T19:26:41.257Z,29.30
2022-12-13T19:29:04.933Z,29.50
2022-12-13T19:31:32.282Z,30.30
2022-12-13T19:33:57.927Z,31.50
2022-12-13T19:36:21.594Z,31.10
2022-12-13T19:38:46.549Z,30.40
2022-12-13T19:41:12.830Z,31.50
2022-12-13T19:43:36.819Z,32.60
2022-12-13T19:46:02.653Z,31.10
2022-12-13T19:48:26.116Z,32.30
2022-12-13T19:50:49.576Z,32.10
2022-12-13T19:53:13.692Z,30.60
2022-12-13T19:55:41.649Z,32.80
2022-12-13T19:58:05.097Z,32.50
2022-12-13T20:00:29.022Z,31.80
2022-12-13T20:02:52.599Z,31.50
2022-12-13T20:05:16.485Z,33.30
2022-12-13T20:07:40.640Z,32.30
2022-12-13T20:10:04.757Z,33.20
2022-12-13T20:12:29.179Z,33.00
2022-12-13T20:14:52.934Z,33.00
2022-12-13T20:17:16.431Z,31.30
2022-12-13T20:19:40.087Z,32.20
2022-12-13T20:22:05.050Z,32.50
2022-12-13T20:24:28.690Z,34.00
2022-12-13T20:26:52.184Z,33.10
2022-12-13T20:29:15.993Z,33.80
2022-12-13T20:31:40.419Z,32.60
2022-12-13T20:34:06.070Z,32.90
2022-12-13T20:36:30.829Z,33.00
2022-12-13T20:38:55.784Z,35.10
2022-12-13T20:41:19.702Z,35.70
2022-12-13T20:43:44.085Z,33.70
2022-12-13T20:46:14.468Z,32.40
2022-12-13T20:48:39.227Z,33.70
2022-12-13T20:51:04.930Z,33.00
2022-12-13T20:53:31.402Z,31.90
2022-12-13T20:55:57.437Z,32.50
2022-12-13T20:58:21.149Z,33.30
2022-12-13T21:00:44.633Z,34.20
2022-12-13T21:03:08.171Z,33.80
2022-12-13T21:05:32.259Z,31.80
2022-12-13T21:08:14.369Z,33.30
2022-12-13T21:10:39.663Z,32.30
2022-12-13T21:13:03.347Z,34.50
2022-12-13T21:15:26.806Z,31.90
2022-12-13T21:17:50.228Z,33.50
2022-12-13T21:20:13.735Z,33.80
2022-12-13T21:22:37.317Z,33.60
2022-12-13T21:25:01.016Z,34.40
2022-12-13T21:27:24.790Z,33.70
2022-12-13T21:29:48.261Z,34.10
2022-12-13T21:32:11.907Z,31.20
2022-12-13T21:34:37.080Z,34.20
2022-12-13T21:37:00.487Z,31.10
2022-12-13T21:39:27.214Z,32.00
2022-12-13T21:41:50.746Z,30.80
2022-12-13T21:44:15.776Z,30.20
2022-12-13T21:49:23.126Z,28.70
2022-12-13T21:51:48.393Z,29.90
2022-12-13T21:54:12.333Z,29.90
2022-12-13T21:56:54.470Z,31.00
2022-12-13T21:59:21.397Z,31.50
2022-12-13T22:02:08.769Z,33.10
2022-12-13T22:04:33.702Z,32.40
2022-12-13T22:06:57.305Z,33.60
2022-12-13T22:09:20.938Z,32.00
2022-12-13T22:11:44.344Z,31.50
2022-12-13T22:14:07.786Z,32.20
2022-12-13T22:16:31.454Z,31.90
2022-12-13T22:18:55.699Z,32.00
2022-12-13T22:21:19.225Z,31.50
2022-12-13T22:23:42.774Z,31.50
2022-12-13T22:26:07.636Z,30.50
2022-12-13T22:28:31.549Z,28.20
2022-12-13T22:30:55.124Z,31.70
2022-12-13T22:33:18.562Z,30.40
2022-12-13T22:35:42.058Z,30.10
2022-12-13T22:38:05.516Z,31.20
2022-12-13T22:40:28.984Z,30.60
2022-12-13T22:42:52.448Z,31.80
2022-12-13T22:45:16.860Z,33.20
2022-12-13T22:47:40.358Z,32.50
2022-12-13T22:50:06.093Z,33.60
2022-12-13T22:52:33.798Z,33.40
2022-12-13T22:54:58.308Z,33.70
2022-12-13T22:57:21.700Z,33.00
2022-12-13T22:59:45.150Z,33.60
2022-12-13T23:02:09.172Z,33.80
2022-12-13T23:04:33.558Z,34.70
2022-12-13T23:06:57.065Z,32.30
2022-12-13T23:09:21.456Z,31.80
2022-12-13T23:12:03.300Z,31.50
2022-12-13T23:14:28.636Z,31.10
2022-12-13T23:16:52.544Z,32.10
2022-12-13T23:19:40.919Z,33.80
2022-12-13T23:22:00.902Z,34.80
2022-12-13T23:24:25.002Z,32.60
2022-12-13T23:26:48.667Z,33.90
2022-12-13T23:29:12.829Z,33.20
2022-12-13T23:31:38.449Z,35.70
2022-12-13T23:34:02.498Z,35.10
2022-12-13T23:36:27.124Z,31.70
2022-12-13T23:38:51.552Z,33.80
2022-12-13T23:41:23.320Z,31.90
2022-12-13T23:43:48.614Z,31.90
2022-12-13T23:46:15.258Z,30.60
2022-12-13T23:48:39.240Z,33.30
2022-12-13T23:51:04.216Z,33.90
2022-12-13T23:53:29.115Z,31.80
2022-12-13T23:55:52.851Z,33.70
2022-12-13T23:58:17.619Z,34.90
